createdAt,value
2019-05-29T00:05:00.966Z,1.20
2019-05-29T00:15:04.510Z,1.60
2019-05-29T00:25:08.531Z,1.70
2019-05-29T00:35:10.715Z,1.63
2019-05-29T00:45:13.440Z,1.93
2019-05-29T00:55:15.024Z,1.73
2019-05-29T01:05:16.663Z,1.93
2019-05-29T01:15:19.556Z,2.17
2019-05-29T01:25:21.160Z,2.10
2019-05-29T01:35:22.681Z,2.10
2019-05-29T01:45:24.100Z,2.77
2019-05-29T01:55:25.603Z,2.37
2019-05-29T02:05:28.176Z,2.40
2019-05-29T02:15:32.566Z,2.53
2019-05-29T02:25:33.227Z,2.67
2019-05-29T02:35:34.767Z,3.23
2019-05-29T02:45:52.926Z,3.17
2019-05-29T02:55:39.666Z,3.10
2019-05-29T03:05:41.194Z,4.00
2019-05-29T03:15:42.817Z,3.37
2019-05-29T03:25:44.256Z,3.70
2019-05-29T03:35:48.210Z,3.67
2019-05-29T03:45:49.017Z,4.70
2019-05-29T03:55:50.469Z,4.90
2019-05-29T04:05:51.901Z,5.87
2019-05-29T04:15:54.251Z,4.77
2019-05-29T04:25:56.577Z,4.30
2019-05-29T04:35:58.006Z,4.50
2019-05-29T04:45:59.422Z,5.00
2019-05-29T04:56:00.875Z,4.93
2019-05-29T05:06:02.525Z,5.27
2019-05-29T05:16:04.143Z,5.60
2019-05-29T05:26:05.705Z,5.40
2019-05-29T05:36:07.236Z,5.50
2019-05-29T05:46:08.741Z,5.23
2019-05-29T05:56:10.431Z,5.73
2019-05-29T06:06:11.884Z,5.63
2019-05-29T06:16:13.321Z,7.00
2019-05-29T06:26:14.784Z,7.80
2019-05-29T06:36:16.276Z,6.77
2019-05-29T06:46:17.810Z,7.07
2019-05-29T06:56:19.259Z,6.63
2019-05-29T07:06:20.886Z,6.37
2019-05-29T07:16:22.330Z,5.37
2019-05-29T07:26:23.872Z,5.50
2019-05-29T07:36:25.358Z,5.13
2019-05-29T07:46:26.806Z,4.90
2019-05-29T07:56:28.277Z,4.90
2019-05-29T08:06:29.713Z,4.67
2019-05-29T08:16:31.179Z,5.30
2019-05-29T08:26:32.794Z,5.40
2019-05-29T08:36:34.369Z,5.07
2019-05-29T08:46:35.811Z,6.10
2019-05-29T08:56:37.318Z,6.20
2019-05-29T09:06:38.780Z,5.40
2019-05-29T09:16:40.195Z,4.07
2019-05-29T09:26:41.733Z,3.87
2019-05-29T09:36:43.422Z,3.50
2019-05-29T09:46:44.862Z,3.07
2019-05-29T09:56:46.309Z,2.90
2019-05-29T10:06:48.116Z,3.80
2019-05-29T10:16:49.634Z,4.53
2019-05-29T10:26:51.371Z,6.10
2019-05-29T10:36:54.645Z,5.10
2019-05-29T10:46:56.750Z,4.00
2019-05-29T10:56:58.667Z,2.40
2019-05-29T11:07:00.446Z,3.30
2019-05-29T11:17:01.902Z,2.23
2019-05-29T11:27:04.053Z,2.50
2019-05-29T11:37:05.631Z,3.13
2019-05-29T11:47:07.175Z,1.27
2019-05-29T11:57:08.759Z,1.63
2019-05-29T12:07:10.221Z,1.43
2019-05-29T12:17:11.665Z,1.43
2019-05-29T12:27:13.311Z,2.10
2019-05-29T12:37:14.856Z,1.80
2019-05-29T12:47:16.321Z,1.40
2019-05-29T12:57:18.126Z,1.50
2019-05-29T13:07:19.670Z,2.00
2019-05-29T13:17:21.318Z,2.03
2019-05-29T13:27:22.749Z,2.30
2019-05-29T13:37:24.219Z,2.40
2019-05-29T13:47:25.673Z,2.70
2019-05-29T13:57:27.149Z,2.43
2019-05-29T14:07:28.718Z,2.87
2019-05-29T14:17:30.178Z,3.00
2019-05-29T14:27:31.641Z,2.47
2019-05-29T14:37:33.117Z,2.70
2019-05-29T14:47:34.553Z,2.93
2019-05-29T14:57:36.110Z,2.73
2019-05-29T15:07:37.665Z,2.30
2019-05-29T15:17:39.215Z,3.20
2019-05-29T15:27:40.745Z,2.83
2019-05-29T15:37:42.191Z,2.40
2019-05-29T15:47:43.624Z,2.20
2019-05-29T15:57:45.089Z,2.20
2019-05-29T16:07:46.541Z,2.67
2019-05-29T16:17:48.101Z,2.60
2019-05-29T16:27:49.660Z,2.00
2019-05-29T16:37:51.227Z,2.53
2019-05-29T16:47:52.667Z,2.30
2019-05-29T16:57:54.117Z,2.40
2019-05-29T17:07:55.978Z,2.30
2019-05-29T17:17:57.441Z,2.30
2019-05-29T17:27:58.886Z,3.67
2019-05-29T17:38:00.480Z,4.07
2019-05-29T17:48:02.128Z,4.07
2019-05-29T17:58:04.704Z,4.03
2019-05-29T18:08:06.402Z,5.33
2019-05-29T18:18:08.047Z,3.97
2019-05-29T18:28:09.527Z,4.00
2019-05-29T18:38:11.075Z,3.80
2019-05-29T18:48:12.635Z,2.93
2019-05-29T18:58:14.088Z,3.03
2019-05-29T19:08:15.869Z,3.13
2019-05-29T19:18:17.477Z,3.57
2019-05-29T19:28:18.910Z,3.50
2019-05-29T19:38:20.467Z,4.10
2019-05-29T19:48:23.021Z,2.73
2019-05-29T19:58:25.578Z,2.80
2019-05-29T20:08:30.917Z,3.03
2019-05-29T20:18:32.087Z,3.40
2019-05-29T20:28:34.251Z,4.37
2019-05-29T20:38:37.099Z,3.37
2019-05-29T20:48:38.845Z,3.33
2019-05-29T20:58:41.968Z,3.33
2019-05-29T21:08:43.556Z,4.03
2019-05-29T21:18:45.121Z,3.63
2019-05-29T21:28:50.442Z,6.10
2019-05-29T21:38:49.930Z,4.07
2019-05-29T21:48:51.411Z,3.63
2019-05-29T21:59:03.164Z,4.03
2019-05-29T22:08:57.247Z,3.90
2019-05-29T22:19:03.832Z,3.93
2019-05-29T22:29:17.045Z,4.33
2019-05-29T22:39:07.819Z,3.90
2019-05-29T22:49:09.843Z,3.53
2019-05-29T22:59:11.525Z,4.83
2019-05-29T23:09:14.171Z,4.40
2019-05-29T23:19:15.617Z,3.07
2019-05-29T23:29:17.183Z,4.23
2019-05-29T23:39:18.857Z,3.90
2019-05-29T23:49:20.341Z,5.43
2019-05-29T23:59:21.959Z,4.30
